Time;durP1;ratioP1;P1;durP2;ratioP2;P2;SDS_P1;SDS_P2;PMS_P1;PMS_P2;Temp;Humidity;BMP_temperature;BMP_pressure;BME280_temperature;BME280_humidity;BME280_pressure;Samples;Min_cycle;Max_cycle;Signal;HPM_P1;HPM_P2
2020/12/24 00:01:56;;;;;;;2.60;0.50;;;11.50;99.90;;;;;;5048630;28;20412;-52
2020/12/24 00:04:21;;;;;;;2.72;0.60;;;11.40;99.90;;;;;;5047387;28;20512;-52
2020/12/24 00:06:47;;;;;;;2.80;0.90;;;11.30;99.90;;;;;;5047697;28;20409;-51
2020/12/24 00:09:12;;;;;;;2.70;0.50;;;11.40;99.90;;;;;;5049054;28;20535;-51
2020/12/24 00:11:38;;;;;;;2.57;0.60;;;11.40;99.90;;;;;;5047933;28;20382;-52
2020/12/24 00:14:04;;;;;;;2.58;0.47;;;11.30;99.90;;;;;;5048370;28;20450;-52
2020/12/24 00:16:30;;;;;;;3.40;0.70;;;11.30;99.90;;;;;;5048511;28;20395;-51
2020/12/24 00:18:56;;;;;;;2.70;0.60;;;11.40;99.90;;;;;;5047860;28;20393;-51
2020/12/24 00:21:21;;;;;;;2.70;0.60;;;11.30;99.90;;;;;;5047528;28;20484;-52
2020/12/24 00:23:47;;;;;;;3.30;0.50;;;11.20;99.90;;;;;;5048316;28;21094;-51
2020/12/24 00:26:13;;;;;;;2.50;0.50;;;11.10;99.90;;;;;;5048392;28;20413;-52
2020/12/24 00:28:38;;;;;;;2.70;0.50;;;11.10;99.90;;;;;;5047915;28;20386;-51
2020/12/24 00:31:06;;;;;;;2.30;0.40;;;11.10;99.90;;;;;;5051097;28;20471;-51
2020/12/24 00:33:31;;;;;;;2.45;0.35;;;11.00;99.90;;;;;;5050676;28;20413;-51
2020/12/24 00:35:57;;;;;;;3.27;0.50;;;11.20;99.90;;;;;;5051740;28;20394;-51
2020/12/24 00:38:23;;;;;;;3.20;0.40;;;11.10;99.90;;;;;;5051239;28;20902;-51
2020/12/24 00:40:48;;;;;;;2.60;0.40;;;11.00;99.90;;;;;;5051785;28;20393;-51
2020/12/24 00:43:14;;;;;;;3.30;0.53;;;11.00;99.90;;;;;;5051505;28;20405;-51
2020/12/24 00:45:39;;;;;;;2.50;0.50;;;11.00;99.90;;;;;;5051382;28;20752;-51
2020/12/24 00:48:05;;;;;;;3.80;0.60;;;12.50;99.90;;;;;;5051440;28;20874;-51
2020/12/24 00:50:31;;;;;;;4.20;0.60;;;10.80;99.90;;;;;;5051297;28;20386;-51
2020/12/24 00:52:56;;;;;;;2.50;0.50;;;10.60;99.90;;;;;;5052380;28;20471;-51
2020/12/24 00:55:22;;;;;;;2.77;0.60;;;10.50;99.90;;;;;;5049896;28;20416;-51
2020/12/24 00:57:48;;;;;;;3.40;0.40;;;10.40;99.90;;;;;;5051643;28;20381;-51
2020/12/24 01:00:13;;;;;;;2.65;0.45;;;10.30;99.90;;;;;;5064956;28;20412;-51
2020/12/24 01:02:39;;;;;;;2.20;0.20;;;10.20;99.90;;;;;;5050416;28;20751;-51
2020/12/24 01:05:06;;;;;;;2.38;0.30;;;10.20;99.90;;;;;;5051319;28;20417;-51
2020/12/24 01:07:33;;;;;;;2.20;0.30;;;10.10;99.90;;;;;;5045889;28;20792;-51
2020/12/24 01:09:58;;;;;;;2.60;0.40;;;10.10;99.90;;;;;;5050578;28;20401;-50
2020/12/24 01:12:24;;;;;;;2.30;0.30;;;10.10;99.90;;;;;;5051425;28;20389;-52
2020/12/24 01:14:49;;;;;;;2.40;0.30;;;10.00;99.90;;;;;;5052048;28;20377;-51
2020/12/24 01:17:15;;;;;;;2.60;0.40;;;9.90;99.90;;;;;;5049825;28;20425;-51
2020/12/24 01:19:41;;;;;;;3.00;0.30;;;9.90;99.90;;;;;;5046927;28;20373;-51
2020/12/24 01:22:06;;;;;;;2.30;0.30;;;9.90;99.90;;;;;;5050079;28;20401;-51
2020/12/24 01:24:32;;;;;;;2.30;0.30;;;10.00;99.90;;;;;;5051047;28;20414;-51
2020/12/24 01:26:58;;;;;;;2.53;0.30;;;10.10;99.90;;;;;;5050494;28;20401;-52
2020/12/24 01:29:23;;;;;;;2.30;0.35;;;10.00;99.90;;;;;;5051185;28;20902;-51
2020/12/24 01:31:50;;;;;;;2.67;0.40;;;10.00;99.90;;;;;;5050307;28;20447;-51
2020/12/24 01:34:18;;;;;;;2.90;0.50;;;10.00;99.90;;;;;;5050912;28;20551;-56
2020/12/24 01:36:44;;;;;;;3.80;0.43;;;10.00;99.90;;;;;;5050771;28;20389;-51
2020/12/24 01:39:10;;;;;;;2.80;0.40;;;10.00;99.90;;;;;;5050816;28;20759;-51
2020/12/24 01:41:36;;;;;;;2.30;0.30;;;9.90;99.90;;;;;;5050624;28;21250;-51
2020/12/24 01:44:02;;;;;;;3.30;0.68;;;10.00;99.90;;;;;;5050172;28;20417;-52
2020/12/24 01:46:28;;;;;;;3.90;0.40;;;10.00;99.90;;;;;;5050293;28;20388;-52
2020/12/24 01:48:54;;;;;;;3.17;0.40;;;10.00;99.90;;;;;;5051442;28;20381;-50
2020/12/24 01:51:31;;;;;;;2.90;0.60;;;9.90;99.90;;;;;;5049291;28;20393;-54
2020/12/24 01:53:58;;;;;;;3.70;0.50;;;9.90;99.90;;;;;;5051349;28;20413;-51
2020/12/24 01:56:24;;;;;;;2.42;0.30;;;9.90;99.90;;;;;;5049519;28;20402;-52
2020/12/24 01:58:52;;;;;;;3.75;0.50;;;10.00;99.90;;;;;;5051021;28;20700;-52
2020/12/24 02:01:18;;;;;;;3.35;0.40;;;10.10;99.90;;;;;;5049506;28;20800;-57
2020/12/24 02:03:44;;;;;;;6.25;0.50;;;10.20;99.90;;;;;;5050797;28;20805;-53
2020/12/24 02:06:11;;;;;;;2.80;0.60;;;10.10;99.90;;;;;;5050958;28;20381;-52
2020/12/24 02:08:37;;;;;;;5.40;0.70;;;10.10;99.90;;;;;;5049121;28;20405;-52
2020/12/24 02:11:02;;;;;;;3.47;1.15;;;10.00;99.90;;;;;;5051014;28;20393;-53
2020/12/24 02:13:28;;;;;;;3.70;1.20;;;10.10;99.90;;;;;;5050666;28;20839;-52
2020/12/24 02:15:54;;;;;;;2.97;0.60;;;10.10;99.90;;;;;;5049656;28;20396;-52
2020/12/24 02:18:20;;;;;;;3.10;0.60;;;10.00;99.90;;;;;;5048794;28;20795;-53
2020/12/24 02:20:47;;;;;;;3.60;0.60;;;9.80;99.90;;;;;;5050638;28;20396;-52
2020/12/24 02:23:13;;;;;;;3.10;0.60;;;9.90;99.90;;;;;;5048948;28;20412;-52
2020/12/24 02:25:41;;;;;;;3.58;0.40;;;9.70;99.90;;;;;;5049842;28;20390;-52
2020/12/24 02:28:08;;;;;;;2.72;0.43;;;9.40;99.90;;;;;;5049702;28;20401;-52
2020/12/24 02:30:34;;;;;;;3.08;0.50;;;9.50;99.90;;;;;;5048533;28;20436;-52
2020/12/24 02:33:00;;;;;;;2.55;0.40;;;9.50;99.90;;;;;;5050502;28;20827;-52
2020/12/24 02:35:25;;;;;;;3.50;0.70;;;9.50;99.90;;;;;;5048164;28;20499;-52
2020/12/24 02:37:53;;;;;;;2.40;0.50;;;9.50;99.90;;;;;;5049272;28;21238;-52
2020/12/24 02:40:18;;;;;;;2.40;0.40;;;9.50;99.90;;;;;;5049445;28;20378;-54
2020/12/24 02:42:44;;;;;;;2.70;0.50;;;9.50;99.90;;;;;;5049214;28;20874;-52
2020/12/24 02:45:10;;;;;;;2.90;0.60;;;9.50;99.90;;;;;;5048914;28;20424;-52
2020/12/24 02:47:36;;;;;;;3.25;0.50;;;9.70;99.90;;;;;;5049591;28;20453;-52
2020/12/24 02:50:05;;;;;;;3.40;0.60;;;9.40;99.90;;;;;;5047853;28;20869;-52
2020/12/24 02:52:31;;;;;;;3.70;0.60;;;9.40;99.90;;;;;;5048240;28;20435;-52
2020/12/24 02:54:57;;;;;;;2.70;0.50;;;9.40;99.90;;;;;;5049226;28;20443;-51
2020/12/24 02:57:22;;;;;;;2.30;0.50;;;9.30;99.90;;;;;;5047987;28;20397;-52
2020/12/24 02:59:48;;;;;;;2.60;0.47;;;9.30;99.90;;;;;;5049589;28;20393;-51
2020/12/24 03:02:14;;;;;;;2.58;0.40;;;9.20;99.90;;;;;;5048304;28;20483;-51
2020/12/24 03:04:39;;;;;;;4.30;0.70;;;9.20;99.90;;;;;;5049104;28;20978;-52
2020/12/24 03:07:05;;;;;;;3.42;0.47;;;9.20;99.90;;;;;;5048334;28;20456;-51
2020/12/24 03:09:30;;;;;;;3.60;0.60;;;9.30;99.90;;;;;;5048750;28;20948;-51
2020/12/24 03:11:56;;;;;;;2.83;0.47;;;9.10;99.90;;;;;;5050220;28;20464;-52
2020/12/24 03:14:22;;;;;;;2.70;0.40;;;9.20;99.90;;;;;;5047701;28;20404;-52
2020/12/24 03:16:47;;;;;;;2.80;0.40;;;9.10;99.90;;;;;;5049651;28;20381;-52
2020/12/24 03:19:13;;;;;;;3.10;0.40;;;9.00;99.90;;;;;;5050000;28;20378;-51
2020/12/24 03:21:40;;;;;;;2.30;0.40;;;9.00;99.90;;;;;;5047485;28;20507;-52
2020/12/24 03:24:06;;;;;;;2.97;0.30;;;8.90;99.90;;;;;;5048936;28;20413;-52
2020/12/24 03:26:32;;;;;;;2.60;0.30;;;8.80;99.90;;;;;;5047142;28;20416;-52
2020/12/24 03:28:58;;;;;;;3.10;0.30;;;8.80;99.90;;;;;;5049358;28;20747;-51
2020/12/24 03:31:25;;;;;;;3.03;0.40;;;8.80;99.90;;;;;;5048054;28;20459;-53
2020/12/24 03:33:52;;;;;;;2.40;0.30;;;8.70;99.90;;;;;;5049662;28;20920;-52
2020/12/24 03:36:18;;;;;;;2.40;0.30;;;8.80;99.90;;;;;;5047600;28;20425;-57
2020/12/24 03:38:44;;;;;;;2.25;0.22;;;8.80;99.90;;;;;;5049322;28;20384;-53
2020/12/24 03:41:10;;;;;;;2.65;0.38;;;8.90;99.90;;;;;;5049883;28;20894;-50
2020/12/24 03:43:35;;;;;;;3.80;0.40;;;8.80;99.90;;;;;;5047372;28;20456;-51
2020/12/24 03:46:02;;;;;;;2.90;0.50;;;8.90;99.90;;;;;;5049107;28;20432;-53
2020/12/24 03:48:27;;;;;;;2.80;0.30;;;8.80;99.90;;;;;;5049052;28;20370;-52
2020/12/24 03:50:53;;;;;;;2.20;0.30;;;8.70;99.90;;;;;;5048202;28;20930;-52
2020/12/24 03:53:19;;;;;;;2.93;0.50;;;8.70;99.90;;;;;;5048880;28;20389;-56
2020/12/24 03:55:45;;;;;;;3.88;0.57;;;8.70;99.90;;;;;;5047724;28;20396;-52
2020/12/24 03:58:11;;;;;;;2.50;0.30;;;8.70;99.90;;;;;;5049335;28;20743;-51
2020/12/24 04:00:37;;;;;;;3.20;0.50;;;8.60;99.90;;;;;;5047043;28;21051;-51
2020/12/24 04:03:03;;;;;;;2.40;0.32;;;8.60;99.90;;;;;;5049103;28;20408;-51
2020/12/24 04:05:28;;;;;;;3.10;0.40;;;8.60;99.90;;;;;;5048550;28;20440;-51
2020/12/24 04:07:54;;;;;;;2.90;0.50;;;8.50;99.90;;;;;;5053447;28;20416;-50
2020/12/24 04:10:19;;;;;;;2.67;0.40;;;8.30;99.90;;;;;;5051403;28;20866;-55
2020/12/24 04:12:45;;;;;;;2.60;0.50;;;8.40;99.90;;;;;;5041410;28;20915;-51
2020/12/24 04:15:11;;;;;;;3.40;0.30;;;8.40;99.90;;;;;;5051730;28;20397;-50
2020/12/24 04:17:36;;;;;;;2.70;0.40;;;8.40;99.90;;;;;;5052076;28;20390;-51
2020/12/24 04:20:03;;;;;;;2.85;0.50;;;8.30;99.90;;;;;;5051644;28;20397;-51
2020/12/24 04:22:29;;;;;;;3.90;0.47;;;8.30;99.90;;;;;;5051102;28;20819;-51
2020/12/24 04:24:54;;;;;;;2.50;0.50;;;8.40;99.90;;;;;;5052198;28;20406;-51
2020/12/24 04:27:20;;;;;;;2.20;0.40;;;8.30;99.90;;;;;;5050840;28;20397;-56
2020/12/24 04:29:46;;;;;;;2.20;0.40;;;8.40;99.90;;;;;;5052505;28;20859;-51
2020/12/24 04:32:12;;;;;;;2.70;0.50;;;8.30;99.90;;;;;;5052041;28;20874;-50
2020/12/24 04:34:37;;;;;;;2.60;0.40;;;8.30;99.90;;;;;;5050513;28;20462;-51
2020/12/24 04:37:03;;;;;;;2.22;0.40;;;8.30;99.90;;;;;;5052430;28;20885;-51
2020/12/24 04:39:28;;;;;;;4.00;1.10;;;8.20;99.90;;;;;;5051352;28;20382;-50
2020/12/24 04:41:58;;;;;;;3.72;0.50;;;8.20;99.90;;;;;;5051611;28;20396;-50
2020/12/24 04:44:26;;;;;;;3.45;0.60;;;8.20;99.90;;;;;;5051467;28;20849;-50
2020/12/24 04:46:54;;;;;;;2.40;0.40;;;8.30;99.90;;;;;;5051414;28;20393;-50
2020/12/24 04:49:23;;;;;;;3.10;0.50;;;8.40;99.90;;;;;;5051070;28;20390;-54
2020/12/24 04:51:50;;;;;;;4.60;0.80;;;8.30;99.90;;;;;;5050736;28;20386;-50
2020/12/24 04:54:16;;;;;;;2.58;0.50;;;8.20;99.90;;;;;;5051001;28;20423;-50
2020/12/24 04:56:42;;;;;;;3.08;0.50;;;8.30;99.90;;;;;;5050894;28;20751;-50
2020/12/24 04:59:08;;;;;;;3.00;0.40;;;8.50;99.90;;;;;;5051325;28;20428;-52
2020/12/24 05:01:34;;;;;;;3.90;0.90;;;8.40;99.90;;;;;;5052031;28;20393;-50
2020/12/24 05:03:59;;;;;;;2.45;0.50;;;8.40;99.90;;;;;;5050821;28;20987;-53
2020/12/24 05:06:26;;;;;;;4.10;0.50;;;8.50;99.90;;;;;;5050967;28;20405;-51
2020/12/24 05:08:56;;;;;;;2.40;0.40;;;8.20;99.90;;;;;;5051972;28;20870;-50
2020/12/24 05:11:31;;;;;;;3.20;0.50;;;8.10;99.90;;;;;;5049778;28;20401;-51
2020/12/24 05:14:15;;;;;;;2.50;0.50;;;8.20;99.90;;;;;;5050593;28;20858;-50
2020/12/24 05:16:41;;;;;;;3.08;0.50;;;8.20;99.90;;;;;;5050193;28;20447;-50
2020/12/24 05:19:13;;;;;;;3.55;0.50;;;8.20;99.90;;;;;;5050595;28;20410;-50
2020/12/24 05:21:39;;;;;;;3.88;0.50;;;8.30;99.90;;;;;;5050100;28;20401;-50
2020/12/24 05:24:22;;;;;;;3.50;0.60;;;8.20;99.90;;;;;;5050395;28;20410;-51
2020/12/24 05:26:47;;;;;;;2.90;0.60;;;8.20;99.90;;;;;;5050418;28;20401;-50
2020/12/24 05:29:13;;;;;;;5.30;0.70;;;8.10;99.90;;;;;;5051537;28;20389;-50
2020/12/24 05:31:39;;;;;;;2.45;0.57;;;8.10;99.90;;;;;;5049840;28;20473;-50
2020/12/24 05:34:04;;;;;;;3.20;0.57;;;8.10;99.90;;;;;;5051280;28;20404;-50
2020/12/24 05:36:30;;;;;;;3.58;0.60;;;8.10;99.90;;;;;;5049969;28;20477;-50
2020/12/24 05:38:56;;;;;;;3.00;0.70;;;8.00;99.90;;;;;;5050007;28;20417;-50
2020/12/24 05:41:40;;;;;;;4.00;0.60;;;8.00;99.90;;;;;;5050039;28;20937;-52
2020/12/24 05:44:13;;;;;;;3.67;0.70;;;8.00;99.90;;;;;;5066921;28;20409;-51
2020/12/24 05:46:45;;;;;;;4.03;0.68;;;7.90;99.90;;;;;;5050854;28;20381;-50
2020/12/24 05:49:11;;;;;;;4.80;0.70;;;7.90;99.90;;;;;;5050447;28;20454;-50
2020/12/24 05:51:38;;;;;;;5.90;0.90;;;7.90;99.90;;;;;;5050160;28;20398;-52
2020/12/24 05:54:07;;;;;;;3.65;0.60;;;7.80;99.90;;;;;;5051454;28;20380;-51
2020/12/24 05:56:36;;;;;;;3.80;0.90;;;7.80;99.90;;;;;;5049389;28;20442;-50
2020/12/24 05:59:04;;;;;;;2.70;0.90;;;7.60;99.90;;;;;;5051173;28;20390;-51
2020/12/24 06:01:39;;;;;;;4.50;1.30;;;7.60;99.90;;;;;;5049415;28;20486;-51
2020/12/24 06:04:09;;;;;;;3.90;1.50;;;7.60;99.90;;;;;;5050995;28;20926;-51
2020/12/24 06:06:42;;;;;;;3.72;1.40;;;7.70;99.90;;;;;;5050597;28;20377;-50
2020/12/24 06:09:13;;;;;;;4.80;1.10;;;7.60;99.90;;;;;;5049667;28;20405;-50
2020/12/24 06:11:45;;;;;;;4.50;1.10;;;7.60;99.90;;;;;;5050245;28;20369;-50
2020/12/24 06:14:19;;;;;;;3.35;1.20;;;7.70;99.90;;;;;;5051208;28;20851;-51
2020/12/24 06:16:48;;;;;;;3.40;1.10;;;7.80;99.90;;;;;;5049181;28;20502;-50
2020/12/24 06:19:15;;;;;;;3.10;1.10;;;7.60;99.90;;;;;;5051352;28;20388;-50
2020/12/24 06:21:42;;;;;;;6.53;0.90;;;7.60;99.90;;;;;;5049153;28;20561;-55
2020/12/24 06:24:09;;;;;;;4.45;1.25;;;7.60;99.90;;;;;;5050010;28;20906;-50
2020/12/24 06:26:44;;;;;;;3.10;1.00;;;7.60;99.90;;;;;;5048623;28;20401;-51
2020/12/24 06:29:10;;;;;;;3.28;1.10;;;7.60;99.90;;;;;;5050568;28;20382;-50
2020/12/24 06:31:40;;;;;;;6.10;1.30;;;7.70;99.90;;;;;;5031765;28;20788;-51
2020/12/24 06:34:28;;;;;;;3.60;1.50;;;7.60;99.90;;;;;;5049191;28;20397;-53
2020/12/24 06:36:54;;;;;;;3.50;1.35;;;7.60;99.90;;;;;;5049277;28;20539;-52
2020/12/24 06:39:45;;;;;;;4.03;1.25;;;7.70;99.90;;;;;;5049765;28;20413;-56
2020/12/24 06:42:35;;;;;;;3.40;1.00;;;7.70;99.90;;;;;;5035812;28;20496;-53
2020/12/24 06:45:11;;;;;;;5.50;1.20;;;7.70;99.90;;;;;;5046645;28;20810;-51
2020/12/24 06:47:38;;;;;;;3.88;1.30;;;7.80;99.90;;;;;;5048288;28;20394;-51
2020/12/24 06:50:39;;;;;;;3.60;1.40;;;7.80;99.90;;;;;;5048953;28;20497;-51
2020/12/24 06:53:33;;;;;;;4.90;1.20;;;7.80;99.90;;;;;;5049843;28;20377;-51
2020/12/24 06:56:17;;;;;;;2.67;1.02;;;7.80;99.90;;;;;;5045623;28;20427;-51
2020/12/24 06:58:48;;;;;;;4.35;1.40;;;7.80;99.90;;;;;;5046069;28;20393;-51
2020/12/24 07:01:14;;;;;;;2.60;1.27;;;7.90;99.90;;;;;;5027936;28;20422;-51
2020/12/24 07:03:40;;;;;;;4.90;1.30;;;8.00;99.90;;;;;;5049271;28;20385;-51
2020/12/24 07:06:06;;;;;;;4.63;1.30;;;8.00;99.90;;;;;;5045047;28;20547;-51
2020/12/24 07:08:34;;;;;;;5.40;1.40;;;8.20;99.90;;;;;;5048688;28;20443;-51
2020/12/24 07:11:04;;;;;;;5.80;1.50;;;8.10;99.90;;;;;;5048840;28;20442;-51
2020/12/24 07:13:40;;;;;;;3.70;1.50;;;8.20;99.90;;;;;;5048382;28;20391;-51
2020/12/24 07:16:13;;;;;;;3.60;1.25;;;8.20;99.90;;;;;;5031431;28;20545;-52
2020/12/24 07:18:40;;;;;;;5.68;1.40;;;8.30;99.90;;;;;;5047994;28;20402;-53
2020/12/24 07:21:06;;;;;;;4.03;1.80;;;8.20;99.90;;;;;;5048791;28;20393;-51
2020/12/24 07:23:40;;;;;;;3.50;1.40;;;8.30;99.90;;;;;;5047226;28;21138;-52
2020/12/24 07:26:07;;;;;;;3.55;1.40;;;8.20;99.90;;;;;;5048553;28;20476;-52
2020/12/24 07:28:38;;;;;;;3.95;1.30;;;8.20;99.90;;;;;;5046950;28;20409;-52
2020/12/24 07:31:09;;;;;;;4.70;1.60;;;8.30;99.90;;;;;;5047788;28;20454;-52
2020/12/24 07:33:36;;;;;;;5.97;1.42;;;8.30;99.90;;;;;;5047955;28;20389;-51
2020/12/24 07:36:06;;;;;;;4.80;1.40;;;8.40;99.90;;;;;;5047663;28;20405;-52
2020/12/24 07:38:31;;;;;;;3.87;1.40;;;8.40;99.90;;;;;;5047225;28;20759;-52
2020/12/24 07:40:57;;;;;;;6.93;1.50;;;8.40;99.90;;;;;;5049671;28;20404;-52
2020/12/24 07:43:26;;;;;;;5.95;1.70;;;8.40;99.90;;;;;;5051729;28;20393;-56
2020/12/24 07:45:52;;;;;;;6.22;1.80;;;8.40;99.90;;;;;;5051340;28;20447;-52
2020/12/24 07:48:22;;;;;;;6.72;2.10;;;8.40;99.90;;;;;;5052378;28;20408;-51
2020/12/24 07:50:50;;;;;;;5.07;1.60;;;8.40;99.90;;;;;;5052715;28;20389;-51
2020/12/24 07:53:18;;;;;;;4.03;1.55;;;8.30;99.90;;;;;;5052762;28;20398;-51
2020/12/24 07:55:44;;;;;;;6.10;1.80;;;8.30;99.90;;;;;;5051263;28;20397;-52
2020/12/24 07:58:12;;;;;;;5.30;1.70;;;8.40;99.90;;;;;;5053385;28;20847;-52
2020/12/24 08:00:47;;;;;;;5.43;1.65;;;8.40;99.90;;;;;;5050774;28;20405;-52
2020/12/24 08:03:17;;;;;;;6.80;1.70;;;8.40;99.90;;;;;;5053008;28;20405;-52
2020/12/24 08:05:43;;;;;;;4.15;1.73;;;8.40;99.90;;;;;;5050344;28;20910;-52
2020/12/24 08:08:09;;;;;;;7.70;1.73;;;8.20;99.90;;;;;;5051017;28;20875;-53
2020/12/24 08:10:42;;;;;;;4.10;1.40;;;8.20;99.90;;;;;;5051220;28;20396;-52
2020/12/24 08:13:10;;;;;;;4.28;1.40;;;8.20;99.90;;;;;;5051267;28;20514;-52
2020/12/24 08:15:41;;;;;;;5.30;1.70;;;8.20;99.90;;;;;;5051458;28;20854;-52
2020/12/24 08:18:13;;;;;;;4.85;1.60;;;8.20;99.90;;;;;;5051684;28;20381;-54
2020/12/24 08:20:57;;;;;;;6.90;1.83;;;8.10;99.90;;;;;;5050692;28;20508;-53
2020/12/24 08:23:37;;;;;;;6.70;1.50;;;8.00;99.90;;;;;;5049605;28;20417;-55
2020/12/24 08:26:05;;;;;;;5.40;1.88;;;8.00;99.90;;;;;;5050078;28;20532;-52
2020/12/24 08:28:32;;;;;;;5.70;1.70;;;8.10;99.90;;;;;;5030065;28;20405;-52
2020/12/24 08:30:59;;;;;;;4.57;1.48;;;8.00;99.90;;;;;;5047508;28;20444;-53
2020/12/24 08:33:25;;;;;;;4.20;1.50;;;8.00;99.90;;;;;;5050243;28;20409;-52
2020/12/24 08:35:51;;;;;;;3.57;1.40;;;8.10;99.90;;;;;;5048829;28;20405;-52
2020/12/24 08:38:19;;;;;;;5.97;2.00;;;8.10;99.90;;;;;;5049185;28;20386;-53
2020/12/24 08:40:45;;;;;;;5.00;1.90;;;8.20;99.90;;;;;;5042253;28;21353;-52
2020/12/24 08:43:12;;;;;;;5.30;1.52;;;8.10;99.90;;;;;;5050946;28;20472;-52
2020/12/24 08:45:46;;;;;;;4.47;1.90;;;8.00;99.90;;;;;;5045102;28;20504;-53
2020/12/24 08:48:34;;;;;;;4.70;1.58;;;8.00;99.90;;;;;;5048284;28;20412;-52
2020/12/24 08:51:18;;;;;;;4.00;1.40;;;7.90;99.90;;;;;;5044055;28;20397;-53
2020/12/24 08:53:49;;;;;;;5.53;1.50;;;7.90;99.90;;;;;;5046399;28;20895;-53
2020/12/24 08:56:18;;;;;;;2.70;0.80;;;8.00;99.90;;;;;;5048883;28;20522;-53
2020/12/24 08:58:51;;;;;;;3.10;0.57;;;8.00;99.90;;;;;;5049047;28;20405;-53
2020/12/24 09:01:19;;;;;;;3.95;0.88;;;7.90;99.90;;;;;;5050698;28;20408;-52
2020/12/24 09:03:45;;;;;;;3.80;0.60;;;7.90;99.90;;;;;;5045962;28;20402;-53
2020/12/24 09:06:12;;;;;;;3.33;0.80;;;7.90;99.90;;;;;;5050637;28;20870;-52
2020/12/24 09:08:47;;;;;;;3.83;0.80;;;8.00;99.90;;;;;;5046249;28;20402;-53
2020/12/24 09:11:30;;;;;;;2.80;0.90;;;7.90;99.90;;;;;;5047281;28;20448;-53
2020/12/24 09:14:01;;;;;;;3.28;0.80;;;7.80;99.90;;;;;;5049254;28;20488;-53
2020/12/24 09:16:29;;;;;;;3.60;0.50;;;7.80;99.90;;;;;;5049147;28;21149;-52
2020/12/24 09:19:05;;;;;;;4.03;1.42;;;7.80;99.90;;;;;;5049110;28;20389;-52
2020/12/24 09:21:35;;;;;;;3.10;0.50;;;7.80;99.90;;;;;;5049960;28;20386;-52
2020/12/24 09:24:08;;;;;;;3.00;0.40;;;7.80;99.90;;;;;;5048948;28;20405;-52
2020/12/24 09:27:00;;;;;;;2.80;0.60;;;7.90;99.90;;;;;;5049132;28;20950;-53
2020/12/24 09:29:27;;;;;;;3.17;1.70;;;7.70;99.90;;;;;;5025559;28;20401;-52
2020/12/24 09:31:53;;;;;;;2.55;1.30;;;11.50;99.90;;;;;;5047347;28;20464;-53
2020/12/24 09:34:18;;;;;;;3.70;1.63;;;7.90;99.90;;;;;;5047722;28;20449;-52
2020/12/24 09:36:49;;;;;;;3.73;1.50;;;8.00;99.90;;;;;;5047862;28;20472;-52
2020/12/24 09:39:15;;;;;;;2.58;0.95;;;7.90;99.90;;;;;;5047679;28;20389;-52
2020/12/24 09:41:45;;;;;;;2.90;1.02;;;7.90;99.90;;;;;;5050017;28;20544;-53
2020/12/24 09:44:12;;;;;;;3.80;1.73;;;7.90;99.90;;;;;;5049097;28;20439;-53
2020/12/24 09:46:38;;;;;;;2.80;0.90;;;8.00;99.90;;;;;;5048487;28;20448;-55
2020/12/24 09:49:04;;;;;;;4.40;0.90;;;8.00;99.90;;;;;;5046774;28;20405;-52
2020/12/24 09:51:38;;;;;;;3.30;1.00;;;8.10;99.90;;;;;;5044355;28;20374;-54
2020/12/24 09:54:05;;;;;;;2.33;0.70;;;8.10;99.90;;;;;;5046893;28;20415;-52
2020/12/24 09:56:31;;;;;;;3.10;0.90;;;8.10;99.90;;;;;;5044917;28;20451;-52
2020/12/24 09:58:57;;;;;;;2.70;0.90;;;8.10;99.90;;;;;;5046684;28;20381;-52
2020/12/24 10:01:23;;;;;;;2.80;0.80;;;8.10;99.90;;;;;;5047936;28;20835;-56
2020/12/24 10:03:48;;;;;;;3.22;0.90;;;8.20;99.90;;;;;;5050384;28;20386;-52
2020/12/24 10:06:14;;;;;;;2.60;0.60;;;8.20;99.90;;;;;;5043494;28;20392;-52
2020/12/24 10:08:40;;;;;;;3.10;0.90;;;8.40;99.90;;;;;;5048646;28;20393;-52
2020/12/24 10:11:16;;;;;;;3.88;1.65;;;8.40;99.90;;;;;;5050742;28;20389;-51
2020/12/24 10:13:42;;;;;;;2.80;1.00;;;8.70;99.90;;;;;;5046462;28;20600;-52
2020/12/24 10:16:08;;;;;;;4.10;1.10;;;8.80;99.90;;;;;;5047302;28;20384;-52
2020/12/24 10:18:34;;;;;;;2.80;0.90;;;9.00;99.90;;;;;;5045621;28;20393;-51
2020/12/24 10:21:00;;;;;;;4.30;0.90;;;9.00;99.90;;;;;;5046849;28;20717;-52
2020/12/24 10:23:25;;;;;;;4.38;0.80;;;9.00;99.90;;;;;;5047458;28;20687;-52
2020/12/24 10:25:51;;;;;;;2.87;0.80;;;9.10;99.90;;;;;;5045881;28;20405;-54
2020/12/24 10:28:17;;;;;;;2.50;0.80;;;9.00;99.90;;;;;;5049320;28;20394;-52
2020/12/24 10:30:43;;;;;;;4.10;0.90;;;8.80;99.90;;;;;;5046926;28;20892;-53
2020/12/24 10:33:09;;;;;;;2.70;0.50;;;9.00;99.90;;;;;;5044797;28;20472;-52
2020/12/24 10:35:36;;;;;;;2.90;0.90;;;9.00;99.90;;;;;;5044514;28;20566;-52
2020/12/24 10:38:03;;;;;;;2.60;0.60;;;11.70;99.90;;;;;;5044299;28;20421;-52
2020/12/24 10:40:28;;;;;;;3.20;0.88;;;8.80;99.90;;;;;;5049694;28;20495;-52
2020/12/24 10:42:54;;;;;;;3.20;0.70;;;8.90;99.90;;;;;;5047591;28;20422;-52
2020/12/24 10:45:19;;;;;;;3.42;1.00;;;8.90;99.90;;;;;;5043403;28;20409;-56
2020/12/24 10:47:45;;;;;;;3.50;1.00;;;8.90;99.90;;;;;;5044994;28;20403;-52
2020/12/24 10:50:11;;;;;;;2.40;0.70;;;9.00;99.90;;;;;;5044913;28;20379;-52
2020/12/24 10:52:36;;;;;;;5.90;2.17;;;9.10;99.90;;;;;;5047245;28;20401;-52
2020/12/24 10:55:03;;;;;;;4.50;3.20;;;9.00;99.90;;;;;;5047010;28;20381;-52
2020/12/24 10:57:28;;;;;;;3.90;1.30;;;9.00;99.90;;;;;;5045149;28;20396;-52
2020/12/24 10:59:54;;;;;;;2.50;0.65;;;9.20;99.90;;;;;;5049633;28;20381;-52
2020/12/24 11:02:20;;;;;;;3.20;0.70;;;9.10;99.90;;;;;;5048129;28;20408;-56
2020/12/24 11:04:45;;;;;;;2.50;0.60;;;9.30;99.90;;;;;;5048735;28;20801;-53
2020/12/24 11:07:11;;;;;;;2.73;0.70;;;9.80;99.90;;;;;;5042520;28;20451;-51
2020/12/24 11:09:36;;;;;;;3.05;0.90;;;9.90;99.90;;;;;;5046842;28;20415;-51
2020/12/24 11:12:03;;;;;;;2.40;0.50;;;9.90;99.90;;;;;;5046076;28;20401;-52
2020/12/24 11:14:29;;;;;;;2.50;0.55;;;9.80;99.90;;;;;;5029727;28;20405;-52
2020/12/24 11:16:58;;;;;;;2.65;0.73;;;9.50;99.90;;;;;;5047441;28;20397;-52
2020/12/24 11:19:24;;;;;;;2.47;0.40;;;9.40;99.90;;;;;;5047925;28;20407;-52
2020/12/24 11:21:49;;;;;;;4.10;1.60;;;9.50;99.90;;;;;;5048734;28;20405;-52
2020/12/24 11:24:15;;;;;;;3.20;1.10;;;9.50;99.90;;;;;;5031741;28;20409;-51
2020/12/24 11:26:41;;;;;;;2.30;0.50;;;9.60;99.90;;;;;;5046780;28;20484;-53
2020/12/24 11:29:07;;;;;;;2.30;0.50;;;9.40;99.90;;;;;;5049680;28;20496;-52
2020/12/24 11:31:35;;;;;;;2.50;0.52;;;9.50;99.90;;;;;;5046444;28;20405;-52
2020/12/24 11:34:01;;;;;;;2.90;0.80;;;9.70;99.90;;;;;;5048145;28;20766;-53
2020/12/24 11:36:28;;;;;;;3.33;1.30;;;9.60;99.90;;;;;;5043778;28;20894;-53
2020/12/24 11:38:55;;;;;;;3.00;0.70;;;9.60;99.90;;;;;;5043044;28;20468;-52
2020/12/24 11:41:23;;;;;;;2.33;0.50;;;9.60;99.90;;;;;;5043483;28;20882;-56
2020/12/24 11:43:50;;;;;;;2.88;0.90;;;9.70;99.90;;;;;;5045413;28;20417;-51
2020/12/24 11:46:17;;;;;;;2.40;0.50;;;9.60;99.90;;;;;;5041502;28;20389;-51
2020/12/24 11:48:43;;;;;;;3.10;0.60;;;9.80;99.90;;;;;;5045067;28;20420;-50
2020/12/24 11:51:10;;;;;;;4.18;1.98;;;9.90;99.90;;;;;;5042316;28;20421;-51
2020/12/24 11:53:37;;;;;;;2.40;0.50;;;9.90;99.90;;;;;;5042842;28;20421;-52
2020/12/24 11:56:03;;;;;;;2.70;0.70;;;9.80;99.90;;;;;;5044952;28;20467;-51
2020/12/24 11:58:29;;;;;;;2.35;0.50;;;9.70;99.90;;;;;;5044996;28;21196;-50
2020/12/24 12:00:55;;;;;;;2.70;0.40;;;9.50;99.90;;;;;;5038681;28;20420;-50
2020/12/24 12:03:20;;;;;;;2.40;0.60;;;9.60;99.90;;;;;;5044152;28;20398;-50
2020/12/24 12:05:46;;;;;;;2.90;0.60;;;9.60;99.90;;;;;;5044280;28;20555;-50
2020/12/24 12:08:12;;;;;;;2.80;0.50;;;9.50;99.90;;;;;;5044187;28;20447;-51
2020/12/24 12:10:37;;;;;;;3.37;0.70;;;9.70;99.90;;;;;;5046688;28;20392;-50
2020/12/24 12:13:03;;;;;;;4.60;1.80;;;9.70;99.90;;;;;;5046366;28;20384;-50
2020/12/24 12:15:29;;;;;;;2.93;0.50;;;9.80;99.90;;;;;;5042939;28;20385;-51
2020/12/24 12:17:55;;;;;;;2.60;0.40;;;9.90;99.90;;;;;;5041365;28;20395;-51
2020/12/24 12:20:21;;;;;;;3.40;0.90;;;10.00;99.90;;;;;;5044562;28;20554;-54
2020/12/24 12:22:48;;;;;;;2.37;0.47;;;9.90;99.90;;;;;;5043044;28;20550;-54
2020/12/24 12:25:14;;;;;;;3.20;0.57;;;9.90;99.90;;;;;;5045328;28;20482;-51
2020/12/24 12:27:40;;;;;;;2.50;0.77;;;9.70;99.90;;;;;;5046220;28;20405;-51
2020/12/24 12:30:06;;;;;;;2.67;0.60;;;9.60;99.90;;;;;;5050847;28;20401;-51
2020/12/24 12:32:32;;;;;;;2.80;0.57;;;9.60;99.90;;;;;;5051908;28;20855;-51
2020/12/24 12:34:57;;;;;;;2.30;0.50;;;9.50;99.90;;;;;;5047785;28;20487;-51
2020/12/24 12:37:23;;;;;;;2.50;0.70;;;9.50;99.90;;;;;;5052037;28;20579;-54
2020/12/24 12:39:51;;;;;;;2.20;0.40;;;9.40;99.90;;;;;;5051966;28;20482;-51
2020/12/24 12:42:17;;;;;;;3.25;1.10;;;9.60;99.90;;;;;;5050457;28;20414;-51
2020/12/24 12:44:43;;;;;;;2.28;0.40;;;9.80;99.90;;;;;;5046934;28;20417;-51
2020/12/24 12:47:09;;;;;;;2.80;0.50;;;9.70;99.90;;;;;;5050959;28;20389;-51
2020/12/24 12:49:34;;;;;;;3.10;0.70;;;9.70;99.90;;;;;;5049696;28;20401;-53
2020/12/24 12:52:03;;;;;;;2.87;0.70;;;9.70;99.90;;;;;;5050022;28;20405;-52
2020/12/24 12:54:29;;;;;;;2.50;0.50;;;9.60;99.90;;;;;;5045927;28;20398;-51
2020/12/24 12:56:55;;;;;;;4.75;0.68;;;9.60;99.90;;;;;;5054166;28;20378;-52
2020/12/24 12:59:21;;;;;;;2.80;0.60;;;9.60;99.90;;;;;;5049286;28;20810;-52